createdAt,value
2023-04-07T00:01:55.257Z,6.40
2023-04-07T00:06:57.740Z,6.40
2023-04-07T00:12:02.753Z,6.40
2023-04-07T00:17:07.187Z,6.30
2023-04-07T00:22:09.746Z,6.10
2023-04-07T00:27:12.234Z,6.20
2023-04-07T00:32:14.681Z,6.10
2023-04-07T00:37:19.367Z,6.10
2023-04-07T00:42:21.798Z,6.10
2023-04-07T00:47:24.376Z,6.00
2023-04-07T00:52:29.154Z,5.90
2023-04-07T00:57:31.737Z,5.90
2023-04-07T01:02:58.208Z,5.90
2023-04-07T01:08:45.328Z,5.80
2023-04-07T01:13:50.994Z,5.80
2023-04-07T01:19:26.218Z,5.80
2023-04-07T01:24:44.226Z,5.70
2023-04-07T01:29:48.501Z,5.70
2023-04-07T01:34:52.596Z,5.70
2023-04-07T01:39:55.407Z,5.60
2023-04-07T01:44:59.004Z,5.60
2023-04-07T01:50:04.707Z,5.50
2023-04-07T01:55:07.950Z,5.50
2023-04-07T02:00:15.333Z,5.40
2023-04-07T02:05:22.434Z,5.40
2023-04-07T02:10:27.013Z,5.30
2023-04-07T02:15:34.250Z,5.30
2023-04-07T02:20:37.819Z,5.20
2023-04-07T02:25:40.384Z,5.30
2023-04-07T02:30:42.896Z,5.30
2023-04-07T02:35:48.141Z,5.30
2023-04-07T02:40:50.621Z,5.20
2023-04-07T02:45:53.189Z,5.10
2023-04-07T02:50:55.579Z,5.20
2023-04-07T02:55:58.746Z,5.20
2023-04-07T03:01:01.350Z,5.20
2023-04-07T03:06:07.081Z,5.20
2023-04-07T03:11:12.925Z,5.20
2023-04-07T03:16:15.549Z,5.20
2023-04-07T03:21:32.072Z,5.00
2023-04-07T03:26:34.905Z,5.10
2023-04-07T03:31:38.934Z,5.20
2023-04-07T03:36:41.598Z,5.10
2023-04-07T03:41:44.200Z,5.10
2023-04-07T03:46:48.325Z,5.10
2023-04-07T03:51:52.186Z,5.20
2023-04-07T03:56:56.903Z,5.10
2023-04-07T04:01:59.714Z,5.10
2023-04-07T04:07:02.519Z,5.10
2023-04-07T04:12:14.561Z,5.10
2023-04-07T04:17:29.900Z,5.10
2023-04-07T04:22:32.689Z,5.10
2023-04-07T04:27:35.563Z,5.10
2023-04-07T04:32:44.832Z,5.20
2023-04-07T04:37:47.283Z,5.10
2023-04-07T04:49:34.239Z,5.10
2023-04-07T04:54:42.006Z,5.30
2023-04-07T04:59:47.955Z,5.20
2023-04-07T05:04:53.315Z,5.20
2023-04-07T05:10:00.647Z,5.20
2023-04-07T05:15:03.366Z,5.20
2023-04-07T05:20:12.152Z,5.20
2023-04-07T05:25:19.441Z,5.10
2023-04-07T05:30:25.718Z,5.10
2023-04-07T05:35:28.764Z,5.30
2023-04-07T05:40:35.053Z,5.40
2023-04-07T05:45:39.771Z,5.30
2023-04-07T05:50:43.566Z,5.30
2023-04-07T05:55:49.652Z,5.30
2023-04-07T06:01:10.928Z,5.40
2023-04-07T06:06:13.612Z,5.50
2023-04-07T06:11:16.809Z,5.50
2023-04-07T06:16:19.804Z,5.50
2023-04-07T06:21:22.500Z,5.50
2023-04-07T06:26:25.338Z,5.60
2023-04-07T06:31:31.094Z,5.80
2023-04-07T06:36:34.000Z,5.70
2023-04-07T06:41:37.146Z,5.70
2023-04-07T06:46:42.399Z,5.70
2023-04-07T06:51:45.131Z,5.80
2023-04-07T07:24:40.234Z,5.90
2023-04-07T07:29:56.531Z,6.00
2023-04-07T07:35:56.351Z,6.10
2023-04-07T07:41:47.170Z,6.10
2023-04-07T07:47:40.000Z,6.30
2023-04-07T07:59:40.412Z,6.10
2023-04-07T08:16:50.955Z,6.20
2023-04-07T08:21:53.424Z,6.30
2023-04-07T08:26:56.109Z,6.60
2023-04-07T08:43:10.760Z,6.60
2023-04-07T08:48:27.015Z,6.50
2023-04-07T08:59:51.734Z,6.80
2023-04-07T09:05:10.086Z,6.70
2023-04-07T09:10:21.148Z,6.80
2023-04-07T09:15:35.822Z,6.90
2023-04-07T09:21:01.992Z,7.10
2023-04-07T09:26:25.281Z,7.10
2023-04-07T09:32:16.318Z,7.10
2023-04-07T09:37:47.424Z,7.00
2023-04-07T09:43:00.501Z,7.10
2023-04-07T09:48:23.217Z,7.10
2023-04-07T09:53:55.491Z,7.20
2023-04-07T09:59:04.294Z,7.20
2023-04-07T10:04:10.332Z,7.40
2023-04-07T10:09:13.132Z,7.50
2023-04-07T10:14:16.774Z,7.60
2023-04-07T10:24:55.968Z,7.90
2023-04-07T10:30:00.295Z,8.00
2023-04-07T10:35:02.572Z,7.90
2023-04-07T10:40:34.939Z,8.00
2023-04-07T10:45:49.112Z,8.10
2023-04-07T10:51:07.355Z,8.20
2023-04-07T10:56:09.618Z,8.40
2023-04-07T11:01:12.594Z,8.30
2023-04-07T11:06:14.988Z,8.20
2023-04-07T11:11:38.741Z,8.20
2023-04-07T11:16:43.504Z,8.20
2023-04-07T11:21:46.191Z,8.10
2023-04-07T11:26:50.554Z,8.10
2023-04-07T11:31:53.276Z,8.10
2023-04-07T11:36:59.531Z,8.10
2023-04-07T11:42:01.867Z,8.00
2023-04-07T11:47:05.183Z,8.00
2023-04-07T11:52:07.728Z,7.90
2023-04-07T11:57:12.870Z,7.90
2023-04-07T12:02:34.834Z,8.00
2023-04-07T12:07:38.557Z,7.90
2023-04-07T12:12:46.315Z,7.90
2023-04-07T12:17:49.280Z,8.10
2023-04-07T12:22:51.608Z,8.20
2023-04-07T12:27:54.317Z,8.30
2023-04-07T12:32:56.604Z,8.40
2023-04-07T12:37:58.842Z,8.40
2023-04-07T12:43:01.184Z,8.40
2023-04-07T12:48:03.732Z,8.20
2023-04-07T12:53:06.085Z,8.10
2023-04-07T12:58:09.482Z,8.20
2023-04-07T13:03:11.963Z,8.30
2023-04-07T13:08:14.345Z,8.30
2023-04-07T13:13:16.673Z,8.20
2023-04-07T13:18:19.218Z,8.40
2023-04-07T13:23:21.484Z,8.30
2023-04-07T13:28:25.363Z,8.40
2023-04-07T13:33:27.600Z,8.50
2023-04-07T13:38:29.846Z,8.50
2023-04-07T13:43:32.106Z,8.50
2023-04-07T13:48:34.408Z,8.50
2023-04-07T13:53:36.903Z,8.50
2023-04-07T13:58:39.443Z,8.60
2023-04-07T14:03:42.936Z,8.70
2023-04-07T14:08:45.570Z,8.60
2023-04-07T14:13:48.922Z,8.60
2023-04-07T14:18:51.723Z,8.60
2023-04-07T14:23:55.134Z,8.60
2023-04-07T14:28:58.496Z,8.60
2023-04-07T14:34:00.976Z,8.50
2023-04-07T14:39:03.990Z,8.70
2023-04-07T14:44:09.007Z,8.60
2023-04-07T14:49:13.171Z,8.70
2023-04-07T14:54:18.101Z,8.60
2023-04-07T14:59:20.594Z,8.80
2023-04-07T15:05:20.297Z,8.70
2023-04-07T15:10:25.458Z,8.80
2023-04-07T15:15:27.945Z,8.80
2023-04-07T15:20:30.283Z,8.80
2023-04-07T15:25:32.581Z,8.80
2023-04-07T15:30:37.203Z,8.80
2023-04-07T15:35:43.994Z,8.80
2023-04-07T15:40:46.457Z,8.70
2023-04-07T15:45:48.781Z,8.70
2023-04-07T15:50:52.048Z,8.70
2023-04-07T15:55:54.900Z,8.70
2023-04-07T16:00:57.500Z,8.70
2023-04-07T16:05:59.831Z,8.70
2023-04-07T16:11:02.096Z,8.70
2023-04-07T16:16:04.588Z,8.80
2023-04-07T16:21:08.634Z,8.70
2023-04-07T16:26:11.102Z,8.70
2023-04-07T16:31:14.325Z,8.70
2023-04-07T16:36:16.751Z,8.70
2023-04-07T16:41:20.190Z,8.70
2023-04-07T16:46:26.058Z,8.80
2023-04-07T16:51:29.495Z,8.60
2023-04-07T16:56:31.792Z,8.70
2023-04-07T17:01:34.164Z,8.70
2023-04-07T17:06:36.606Z,8.70
2023-04-07T17:11:41.063Z,8.70
2023-04-07T17:16:43.393Z,8.60
2023-04-07T17:21:46.614Z,8.70
2023-04-07T17:26:49.145Z,8.60
2023-04-07T17:31:52.004Z,8.60
2023-04-07T17:36:54.222Z,8.50
2023-04-07T17:42:00.211Z,8.60
2023-04-07T17:47:02.834Z,8.60
2023-04-07T17:52:13.501Z,8.50
2023-04-07T17:57:16.901Z,8.60
2023-04-07T18:02:19.432Z,8.60
2023-04-07T18:07:22.377Z,8.50
2023-04-07T18:12:24.812Z,8.60
2023-04-07T18:17:27.226Z,8.60
2023-04-07T18:22:30.417Z,8.70
2023-04-07T18:27:32.831Z,8.70
2023-04-07T18:32:35.882Z,8.70
2023-04-07T18:37:38.322Z,8.70
2023-04-07T18:42:40.779Z,8.70
2023-04-07T18:47:43.200Z,8.70
2023-04-07T18:52:45.752Z,8.70
2023-04-07T18:57:48.892Z,8.80
2023-04-07T19:02:51.528Z,8.80
2023-04-07T19:07:54.116Z,8.90
2023-04-07T19:12:56.558Z,8.80
2023-04-07T19:17:58.979Z,8.80
2023-04-07T19:23:02.108Z,8.90
2023-04-07T19:28:05.457Z,8.90
2023-04-07T19:33:08.255Z,9.00
2023-04-07T19:38:10.966Z,9.00
2023-04-07T19:43:14.254Z,9.10
2023-04-07T19:48:17.581Z,9.10
2023-04-07T19:53:20.118Z,9.10
2023-04-07T19:58:23.450Z,9.10
2023-04-07T20:03:25.942Z,9.20
2023-04-07T20:08:28.323Z,9.20
2023-04-07T20:13:31.830Z,9.10
2023-04-07T20:18:34.286Z,9.20
2023-04-07T20:23:36.755Z,9.10
2023-04-07T20:28:39.162Z,9.10
2023-04-07T20:33:42.034Z,9.10
2023-04-07T20:38:44.578Z,9.00
2023-04-07T20:43:47.030Z,9.00
2023-04-07T20:48:49.579Z,9.00
2023-04-07T20:53:52.243Z,9.10
2023-04-07T20:58:54.919Z,9.00
2023-04-07T21:03:57.625Z,9.00
2023-04-07T21:09:00.125Z,8.80
2023-04-07T21:14:03.207Z,8.60
2023-04-07T21:19:06.362Z,8.60
2023-04-07T21:24:08.719Z,8.50
2023-04-07T21:29:11.381Z,8.40
2023-04-07T21:34:14.381Z,8.30
2023-04-07T21:39:16.787Z,8.40
2023-04-07T21:44:21.104Z,8.50
2023-04-07T21:49:25.369Z,8.50
2023-04-07T21:54:27.725Z,8.50
2023-04-07T21:59:30.066Z,8.40
2023-04-07T22:04:32.546Z,8.20
2023-04-07T22:09:35.103Z,8.20
2023-04-07T22:14:37.436Z,8.30
2023-04-07T22:19:39.829Z,8.00
2023-04-07T22:24:42.167Z,7.90
2023-04-07T22:29:44.544Z,7.80
2023-04-07T22:34:47.681Z,7.80
2023-04-07T22:39:50.048Z,7.70
2023-04-07T22:44:52.620Z,7.70
2023-04-07T22:49:55.024Z,7.60
2023-04-07T22:54:57.905Z,7.40
2023-04-07T23:00:00.571Z,7.30
2023-04-07T23:05:03.304Z,7.20
2023-04-07T23:10:07.831Z,7.00
2023-04-07T23:15:10.766Z,7.10
2023-04-07T23:20:13.284Z,6.90
2023-04-07T23:25:15.753Z,6.90
2023-04-07T23:30:18.333Z,6.70
2023-04-07T23:35:21.138Z,6.60
2023-04-07T23:40:23.611Z,6.30
2023-04-07T23:45:26.110Z,6.30
2023-04-07T23:50:28.526Z,6.30
2023-04-07T23:55:31.268Z,6.20
